sensor_id;sensor_type;location;lat;lon;timestamp;P1;durP1;ratioP1;P2;durP2;ratioP2
72127;SDS011;60000;51.030;7.024;2022-11-21T00:00:18;15.93;;;3.27;;
72127;SDS011;60000;51.030;7.024;2022-11-21T00:02:44;11.20;;;2.40;;
72127;SDS011;60000;51.030;7.024;2022-11-21T00:05:09;7.50;;;1.83;;
72127;SDS011;60000;51.030;7.024;2022-11-21T00:07:35;15.53;;;3.70;;
72127;SDS011;60000;51.030;7.024;2022-11-21T00:10:00;13.05;;;2.33;;
72127;SDS011;60000;51.030;7.024;2022-11-21T00:12:25;10.63;;;1.95;;
72127;SDS011;60000;51.030;7.024;2022-11-21T00:14:51;10.73;;;1.80;;
72127;SDS011;60000;51.030;7.024;2022-11-21T00:17:16;11.57;;;2.07;;
72127;SDS011;60000;51.030;7.024;2022-11-21T00:19:42;11.43;;;1.80;;
72127;SDS011;60000;51.030;7.024;2022-11-21T00:22:08;7.57;;;2.05;;
72127;SDS011;60000;51.030;7.024;2022-11-21T00:24:33;16.40;;;2.23;;
72127;SDS011;60000;51.030;7.024;2022-11-21T00:26:59;10.97;;;1.93;;
72127;SDS011;60000;51.030;7.024;2022-11-21T00:29:24;10.73;;;2.00;;
72127;SDS011;60000;51.030;7.024;2022-11-21T00:31:49;13.63;;;2.93;;
72127;SDS011;60000;51.030;7.024;2022-11-21T00:34:14;12.03;;;2.50;;
72127;SDS011;60000;51.030;7.024;2022-11-21T00:36:40;5.70;;;1.50;;
72127;SDS011;60000;51.030;7.024;2022-11-21T00:39:06;10.80;;;2.03;;
72127;SDS011;60000;51.030;7.024;2022-11-21T00:41:31;12.80;;;2.33;;
72127;SDS011;60000;51.030;7.024;2022-11-21T00:43:56;9.63;;;2.13;;
72127;SDS011;60000;51.030;7.024;2022-11-21T00:46:21;9.90;;;2.30;;
72127;SDS011;60000;51.030;7.024;2022-11-21T00:48:50;9.90;;;2.50;;
72127;SDS011;60000;51.030;7.024;2022-11-21T00:51:15;10.90;;;2.40;;
72127;SDS011;60000;51.030;7.024;2022-11-21T00:53:40;15.07;;;3.37;;
72127;SDS011;60000;51.030;7.024;2022-11-21T00:56:06;13.68;;;2.63;;
72127;SDS011;60000;51.030;7.024;2022-11-21T00:58:32;9.00;;;2.13;;
72127;SDS011;60000;51.030;7.024;2022-11-21T01:01:01;11.93;;;2.58;;
72127;SDS011;60000;51.030;7.024;2022-11-21T01:03:44;10.65;;;1.92;;
72127;SDS011;60000;51.030;7.024;2022-11-21T01:06:11;9.90;;;2.17;;
72127;SDS011;60000;51.030;7.024;2022-11-21T01:08:38;12.32;;;2.55;;
72127;SDS011;60000;51.030;7.024;2022-11-21T01:11:06;9.15;;;1.90;;
72127;SDS011;60000;51.030;7.024;2022-11-21T01:13:33;10.67;;;2.57;;
72127;SDS011;60000;51.030;7.024;2022-11-21T01:16:17;8.82;;;1.98;;
72127;SDS011;60000;51.030;7.024;2022-11-21T01:18:44;8.25;;;2.28;;
72127;SDS011;60000;51.030;7.024;2022-11-21T01:23:43;13.37;;;2.40;;
72127;SDS011;60000;51.030;7.024;2022-11-21T01:26:10;10.45;;;2.30;;
72127;SDS011;60000;51.030;7.024;2022-11-21T01:28:37;10.65;;;2.38;;
72127;SDS011;60000;51.030;7.024;2022-11-21T01:31:12;9.83;;;2.33;;
72127;SDS011;60000;51.030;7.024;2022-11-21T01:33:43;12.10;;;2.45;;
72127;SDS011;60000;51.030;7.024;2022-11-21T01:38:35;11.20;;;2.72;;
72127;SDS011;60000;51.030;7.024;2022-11-21T01:41:01;10.50;;;2.55;;
72127;SDS011;60000;51.030;7.024;2022-11-21T01:43:27;10.73;;;2.53;;
72127;SDS011;60000;51.030;7.024;2022-11-21T01:45:59;14.27;;;2.47;;
72127;SDS011;60000;51.030;7.024;2022-11-21T01:50:58;9.68;;;2.30;;
72127;SDS011;60000;51.030;7.024;2022-11-21T01:53:29;12.68;;;3.05;;
72127;SDS011;60000;51.030;7.024;2022-11-21T01:55:55;9.40;;;2.30;;
72127;SDS011;60000;51.030;7.024;2022-11-21T01:58:20;12.00;;;2.37;;
72127;SDS011;60000;51.030;7.024;2022-11-21T02:00:46;12.63;;;2.67;;
72127;SDS011;60000;51.030;7.024;2022-11-21T02:03:13;9.10;;;2.45;;
72127;SDS011;60000;51.030;7.024;2022-11-21T02:05:42;9.37;;;2.40;;
72127;SDS011;60000;51.030;7.024;2022-11-21T02:08:09;11.52;;;3.05;;
72127;SDS011;60000;51.030;7.024;2022-11-21T02:10:40;15.43;;;3.40;;
72127;SDS011;60000;51.030;7.024;2022-11-21T02:13:16;12.60;;;3.25;;
72127;SDS011;60000;51.030;7.024;2022-11-21T02:15:42;16.27;;;3.50;;
72127;SDS011;60000;51.030;7.024;2022-11-21T02:18:08;15.15;;;2.80;;
72127;SDS011;60000;51.030;7.024;2022-11-21T02:20:33;12.47;;;3.13;;
72127;SDS011;60000;51.030;7.024;2022-11-21T02:23:04;13.02;;;2.67;;
72127;SDS011;60000;51.030;7.024;2022-11-21T02:25:38;9.50;;;3.17;;
72127;SDS011;60000;51.030;7.024;2022-11-21T02:28:07;12.55;;;3.60;;
72127;SDS011;60000;51.030;7.024;2022-11-21T02:30:36;14.05;;;3.30;;
72127;SDS011;60000;51.030;7.024;2022-11-21T02:33:03;20.17;;;3.80;;
72127;SDS011;60000;51.030;7.024;2022-11-21T02:35:29;8.73;;;3.08;;
72127;SDS011;60000;51.030;7.024;2022-11-21T02:40:39;15.20;;;4.35;;
72127;SDS011;60000;51.030;7.024;2022-11-21T02:43:17;11.82;;;4.82;;
72127;SDS011;60000;51.030;7.024;2022-11-21T02:45:48;14.98;;;5.60;;
72127;SDS011;60000;51.030;7.024;2022-11-21T02:48:14;19.83;;;6.53;;
72127;SDS011;60000;51.030;7.024;2022-11-21T02:50:43;15.20;;;6.17;;
72127;SDS011;60000;51.030;7.024;2022-11-21T02:53:11;17.67;;;6.50;;
72127;SDS011;60000;51.030;7.024;2022-11-21T02:55:41;14.23;;;6.65;;
72127;SDS011;60000;51.030;7.024;2022-11-21T02:58:07;14.45;;;6.55;;
72127;SDS011;60000;51.030;7.024;2022-11-21T03:00:33;17.80;;;6.93;;
72127;SDS011;60000;51.030;7.024;2022-11-21T03:03:00;20.08;;;7.20;;
72127;SDS011;60000;51.030;7.024;2022-11-21T03:05:25;18.90;;;8.50;;
72127;SDS011;60000;51.030;7.024;2022-11-21T03:07:51;17.75;;;7.60;;
72127;SDS011;60000;51.030;7.024;2022-11-21T03:10:16;19.63;;;8.17;;
72127;SDS011;60000;51.030;7.024;2022-11-21T03:12:42;15.90;;;7.43;;
72127;SDS011;60000;51.030;7.024;2022-11-21T03:15:09;16.65;;;6.65;;
72127;SDS011;60000;51.030;7.024;2022-11-21T03:17:35;16.00;;;7.05;;
72127;SDS011;60000;51.030;7.024;2022-11-21T03:20:01;15.07;;;6.47;;
72127;SDS011;60000;51.030;7.024;2022-11-21T03:22:27;16.35;;;6.72;;
72127;SDS011;60000;51.030;7.024;2022-11-21T03:24:52;19.07;;;7.60;;
72127;SDS011;60000;51.030;7.024;2022-11-21T03:27:18;15.30;;;6.80;;
72127;SDS011;60000;51.030;7.024;2022-11-21T03:29:43;18.60;;;7.77;;
72127;SDS011;60000;51.030;7.024;2022-11-21T03:32:08;18.80;;;7.67;;
72127;SDS011;60000;51.030;7.024;2022-11-21T03:34:34;19.42;;;7.57;;
72127;SDS011;60000;51.030;7.024;2022-11-21T03:36:59;20.13;;;8.00;;
72127;SDS011;60000;51.030;7.024;2022-11-21T03:39:25;19.80;;;7.87;;
72127;SDS011;60000;51.030;7.024;2022-11-21T03:41:50;17.30;;;8.07;;
72127;SDS011;60000;51.030;7.024;2022-11-21T03:44:15;19.63;;;8.05;;
72127;SDS011;60000;51.030;7.024;2022-11-21T03:46:43;18.15;;;8.05;;
72127;SDS011;60000;51.030;7.024;2022-11-21T03:49:10;18.47;;;7.63;;
72127;SDS011;60000;51.030;7.024;2022-11-21T03:51:36;22.70;;;7.70;;
72127;SDS011;60000;51.030;7.024;2022-11-21T03:54:02;16.30;;;7.22;;
72127;SDS011;60000;51.030;7.024;2022-11-21T03:56:28;16.33;;;7.03;;
72127;SDS011;60000;51.030;7.024;2022-11-21T03:58:54;20.45;;;7.88;;
72127;SDS011;60000;51.030;7.024;2022-11-21T04:01:20;18.03;;;7.87;;
72127;SDS011;60000;51.030;7.024;2022-11-21T04:03:46;20.83;;;7.90;;
72127;SDS011;60000;51.030;7.024;2022-11-21T04:06:13;20.88;;;7.53;;
72127;SDS011;60000;51.030;7.024;2022-11-21T04:08:40;19.73;;;7.82;;
72127;SDS011;60000;51.030;7.024;2022-11-21T04:11:05;18.20;;;7.97;;
72127;SDS011;60000;51.030;7.024;2022-11-21T04:13:31;16.48;;;7.03;;
72127;SDS011;60000;51.030;7.024;2022-11-21T04:15:57;22.83;;;7.73;;
72127;SDS011;60000;51.030;7.024;2022-11-21T04:18:22;23.60;;;8.15;;
72127;SDS011;60000;51.030;7.024;2022-11-21T04:20:48;19.40;;;7.63;;
72127;SDS011;60000;51.030;7.024;2022-11-21T04:23:13;19.87;;;8.73;;
72127;SDS011;60000;51.030;7.024;2022-11-21T04:25:39;25.30;;;9.03;;
72127;SDS011;60000;51.030;7.024;2022-11-21T04:28:05;20.42;;;8.55;;
72127;SDS011;60000;51.030;7.024;2022-11-21T04:30:31;22.03;;;8.73;;
72127;SDS011;60000;51.030;7.024;2022-11-21T04:32:57;22.80;;;8.57;;
72127;SDS011;60000;51.030;7.024;2022-11-21T04:35:23;21.20;;;8.27;;
72127;SDS011;60000;51.030;7.024;2022-11-21T04:37:49;19.98;;;8.73;;
72127;SDS011;60000;51.030;7.024;2022-11-21T04:40:15;26.65;;;8.93;;
72127;SDS011;60000;51.030;7.024;2022-11-21T04:42:44;25.87;;;9.07;;
72127;SDS011;60000;51.030;7.024;2022-11-21T04:45:12;24.85;;;8.98;;
72127;SDS011;60000;51.030;7.024;2022-11-21T04:47:38;25.77;;;9.43;;
72127;SDS011;60000;51.030;7.024;2022-11-21T04:50:05;21.65;;;9.10;;
72127;SDS011;60000;51.030;7.024;2022-11-21T04:52:31;22.23;;;8.73;;
72127;SDS011;60000;51.030;7.024;2022-11-21T04:54:57;25.43;;;9.33;;
72127;SDS011;60000;51.030;7.024;2022-11-21T04:57:22;24.05;;;8.82;;
72127;SDS011;60000;51.030;7.024;2022-11-21T04:59:48;25.50;;;8.80;;
72127;SDS011;60000;51.030;7.024;2022-11-21T05:02:13;22.43;;;8.73;;
72127;SDS011;60000;51.030;7.024;2022-11-21T05:04:38;23.10;;;8.67;;
72127;SDS011;60000;51.030;7.024;2022-11-21T05:07:04;25.43;;;8.33;;
72127;SDS011;60000;51.030;7.024;2022-11-21T05:09:29;23.13;;;8.70;;
72127;SDS011;60000;51.030;7.024;2022-11-21T05:11:54;21.30;;;8.57;;
72127;SDS011;60000;51.030;7.024;2022-11-21T05:14:38;28.40;;;7.88;;
72127;SDS011;60000;51.030;7.024;2022-11-21T05:17:04;18.20;;;7.23;;
72127;SDS011;60000;51.030;7.024;2022-11-21T05:19:29;22.60;;;8.32;;
72127;SDS011;60000;51.030;7.024;2022-11-21T05:21:54;17.67;;;7.28;;
72127;SDS011;60000;51.030;7.024;2022-11-21T05:24:20;21.03;;;8.27;;
72127;SDS011;60000;51.030;7.024;2022-11-21T05:26:45;26.03;;;7.97;;
72127;SDS011;60000;51.030;7.024;2022-11-21T05:29:11;23.33;;;8.07;;
72127;SDS011;60000;51.030;7.024;2022-11-21T05:31:36;19.23;;;7.63;;
72127;SDS011;60000;51.030;7.024;2022-11-21T05:34:02;20.30;;;7.83;;
72127;SDS011;60000;51.030;7.024;2022-11-21T05:36:27;21.83;;;7.67;;
72127;SDS011;60000;51.030;7.024;2022-11-21T05:38:53;17.23;;;6.90;;
72127;SDS011;60000;51.030;7.024;2022-11-21T05:41:18;17.20;;;7.53;;
72127;SDS011;60000;51.030;7.024;2022-11-21T05:43:44;18.53;;;7.07;;
72127;SDS011;60000;51.030;7.024;2022-11-21T05:46:13;20.42;;;7.68;;
72127;SDS011;60000;51.030;7.024;2022-11-21T05:48:44;23.08;;;8.90;;
72127;SDS011;60000;51.030;7.024;2022-11-21T05:51:10;22.33;;;8.23;;
72127;SDS011;60000;51.030;7.024;2022-11-21T05:53:36;27.02;;;9.45;;
72127;SDS011;60000;51.030;7.024;2022-11-21T05:56:05;25.37;;;9.07;;
72127;SDS011;60000;51.030;7.024;2022-11-21T05:58:32;29.45;;;10.07;;
72127;SDS011;60000;51.030;7.024;2022-11-21T06:00:58;27.20;;;9.88;;
72127;SDS011;60000;51.030;7.024;2022-11-21T06:03:24;28.25;;;10.38;;
72127;SDS011;60000;51.030;7.024;2022-11-21T06:08:34;27.27;;;10.38;;
72127;SDS011;60000;51.030;7.024;2022-11-21T06:11:01;27.08;;;9.88;;
72127;SDS011;60000;51.030;7.024;2022-11-21T06:13:27;29.25;;;10.45;;
72127;SDS011;60000;51.030;7.024;2022-11-21T06:15:56;29.13;;;10.23;;
72127;SDS011;60000;51.030;7.024;2022-11-21T06:18:24;21.75;;;8.60;;
72127;SDS011;60000;51.030;7.024;2022-11-21T06:20:49;23.55;;;9.43;;
72127;SDS011;60000;51.030;7.024;2022-11-21T06:23:15;21.27;;;8.60;;
72127;SDS011;60000;51.030;7.024;2022-11-21T06:25:41;33.53;;;10.40;;
72127;SDS011;60000;51.030;7.024;2022-11-21T06:28:07;28.63;;;9.38;;
72127;SDS011;60000;51.030;7.024;2022-11-21T06:30:32;28.43;;;9.87;;
72127;SDS011;60000;51.030;7.024;2022-11-21T06:32:58;30.23;;;10.23;;
72127;SDS011;60000;51.030;7.024;2022-11-21T06:35:23;25.60;;;9.10;;
72127;SDS011;60000;51.030;7.024;2022-11-21T06:37:49;25.80;;;10.10;;
72127;SDS011;60000;51.030;7.024;2022-11-21T06:40:14;25.60;;;9.00;;
72127;SDS011;60000;51.030;7.024;2022-11-21T06:42:39;31.13;;;8.47;;
72127;SDS011;60000;51.030;7.024;2022-11-21T06:45:05;28.67;;;8.63;;
72127;SDS011;60000;51.030;7.024;2022-11-21T06:47:34;21.02;;;7.95;;
72127;SDS011;60000;51.030;7.024;2022-11-21T06:49:59;25.83;;;8.35;;
72127;SDS011;60000;51.030;7.024;2022-11-21T06:52:25;26.73;;;8.60;;
72127;SDS011;60000;51.030;7.024;2022-11-21T06:54:50;22.77;;;8.47;;
72127;SDS011;60000;51.030;7.024;2022-11-21T06:57:16;21.42;;;7.50;;
72127;SDS011;60000;51.030;7.024;2022-11-21T06:59:41;20.73;;;7.13;;
72127;SDS011;60000;51.030;7.024;2022-11-21T07:02:10;17.47;;;6.50;;
72127;SDS011;60000;51.030;7.024;2022-11-21T07:04:38;13.85;;;6.53;;
72127;SDS011;60000;51.030;7.024;2022-11-21T07:07:04;13.47;;;5.40;;
72127;SDS011;60000;51.030;7.024;2022-11-21T07:09:30;13.90;;;4.93;;
72127;SDS011;60000;51.030;7.024;2022-11-21T07:11:57;13.38;;;5.57;;
72127;SDS011;60000;51.030;7.024;2022-11-21T07:14:43;10.43;;;4.35;;
72127;SDS011;60000;51.030;7.024;2022-11-21T07:17:10;10.63;;;4.33;;
72127;SDS011;60000;51.030;7.024;2022-11-21T07:19:36;11.68;;;4.03;;
72127;SDS011;60000;51.030;7.024;2022-11-21T07:22:01;10.13;;;3.53;;
72127;SDS011;60000;51.030;7.024;2022-11-21T07:24:26;13.00;;;3.60;;
72127;SDS011;60000;51.030;7.024;2022-11-21T07:26:51;8.20;;;3.33;;
72127;SDS011;60000;51.030;7.024;2022-11-21T07:29:17;13.70;;;4.53;;
72127;SDS011;60000;51.030;7.024;2022-11-21T07:31:42;10.10;;;4.40;;
72127;SDS011;60000;51.030;7.024;2022-11-21T07:34:07;11.88;;;4.35;;
72127;SDS011;60000;51.030;7.024;2022-11-21T07:36:33;10.30;;;5.20;;
72127;SDS011;60000;51.030;7.024;2022-11-21T07:39:00;10.43;;;4.27;;
72127;SDS011;60000;51.030;7.024;2022-11-21T07:41:25;10.98;;;4.78;;
72127;SDS011;60000;51.030;7.024;2022-11-21T07:43:50;13.30;;;5.07;;
72127;SDS011;60000;51.030;7.024;2022-11-21T07:46:16;12.90;;;5.20;;
72127;SDS011;60000;51.030;7.024;2022-11-21T07:48:41;11.37;;;5.20;;
72127;SDS011;60000;51.030;7.024;2022-11-21T07:51:06;12.10;;;4.90;;
72127;SDS011;60000;51.030;7.024;2022-11-21T07:53:32;13.27;;;5.17;;
72127;SDS011;60000;51.030;7.024;2022-11-21T07:55:58;12.27;;;5.47;;
72127;SDS011;60000;51.030;7.024;2022-11-21T07:58:23;15.48;;;5.65;;
72127;SDS011;60000;51.030;7.024;2022-11-21T08:00:49;14.63;;;5.37;;
72127;SDS011;60000;51.030;7.024;2022-11-21T08:03:14;16.38;;;5.90;;
72127;SDS011;60000;51.030;7.024;2022-11-21T08:05:40;13.60;;;4.90;;
72127;SDS011;60000;51.030;7.024;2022-11-21T08:08:07;8.27;;;3.83;;
72127;SDS011;60000;51.030;7.024;2022-11-21T08:10:37;11.77;;;4.85;;
72127;SDS011;60000;51.030;7.024;2022-11-21T08:13:07;13.85;;;5.10;;
72127;SDS011;60000;51.030;7.024;2022-11-21T08:15:32;11.40;;;4.17;;
72127;SDS011;60000;51.030;7.024;2022-11-21T08:17:58;9.37;;;4.50;;
72127;SDS011;60000;51.030;7.024;2022-11-21T08:20:31;13.85;;;4.72;;
72127;SDS011;60000;51.030;7.024;2022-11-21T08:22:56;12.20;;;4.57;;
72127;SDS011;60000;51.030;7.024;2022-11-21T08:25:21;9.87;;;4.37;;
72127;SDS011;60000;51.030;7.024;2022-11-21T08:27:47;13.70;;;4.53;;
72127;SDS011;60000;51.030;7.024;2022-11-21T08:30:12;13.55;;;4.90;;
72127;SDS011;60000;51.030;7.024;2022-11-21T08:32:38;11.23;;;4.63;;
72127;SDS011;60000;51.030;7.024;2022-11-21T08:35:03;13.20;;;5.70;;
72127;SDS011;60000;51.030;7.024;2022-11-21T08:37:29;16.05;;;6.13;;
72127;SDS011;60000;51.030;7.024;2022-11-21T08:39:55;17.37;;;5.90;;
72127;SDS011;60000;51.030;7.024;2022-11-21T08:42:22;11.40;;;4.88;;
72127;SDS011;60000;51.030;7.024;2022-11-21T08:44:48;12.27;;;5.00;;
72127;SDS011;60000;51.030;7.024;2022-11-21T08:47:13;14.37;;;3.90;;
72127;SDS011;60000;51.030;7.024;2022-11-21T08:49:38;9.07;;;4.35;;
72127;SDS011;60000;51.030;7.024;2022-11-21T08:52:04;9.47;;;4.00;;
72127;SDS011;60000;51.030;7.024;2022-11-21T08:54:29;7.13;;;3.63;;
72127;SDS011;60000;51.030;7.024;2022-11-21T08:56:54;9.47;;;4.50;;
72127;SDS011;60000;51.030;7.024;2022-11-21T08:59:20;9.40;;;4.00;;
72127;SDS011;60000;51.030;7.024;2022-11-21T09:01:45;10.10;;;4.03;;
72127;SDS011;60000;51.030;7.024;2022-11-21T09:04:10;10.63;;;4.43;;
72127;SDS011;60000;51.030;7.024;2022-11-21T09:06:36;11.15;;;4.60;;
72127;SDS011;60000;51.030;7.024;2022-11-21T09:09:03;10.75;;;4.32;;
72127;SDS011;60000;51.030;7.024;2022-11-21T09:11:29;11.38;;;4.32;;
72127;SDS011;60000;51.030;7.024;2022-11-21T09:13:55;9.83;;;4.40;;
72127;SDS011;60000;51.030;7.024;2022-11-21T09:16:38;9.18;;;4.15;;
72127;SDS011;60000;51.030;7.024;2022-11-21T09:19:22;10.57;;;4.13;;
72127;SDS011;60000;51.030;7.024;2022-11-21T09:21:48;9.27;;;4.53;;
72127;SDS011;60000;51.030;7.024;2022-11-21T09:24:14;9.52;;;4.50;;
72127;SDS011;60000;51.030;7.024;2022-11-21T09:26:39;11.27;;;3.43;;
72127;SDS011;60000;51.030;7.024;2022-11-21T09:29:05;10.13;;;4.33;;
72127;SDS011;60000;51.030;7.024;2022-11-21T09:31:30;10.70;;;4.70;;
72127;SDS011;60000;51.030;7.024;2022-11-21T09:33:55;14.90;;;4.17;;
72127;SDS011;60000;51.030;7.024;2022-11-21T09:36:21;9.93;;;5.18;;
72127;SDS011;60000;51.030;7.024;2022-11-21T09:38:47;13.43;;;4.70;;
72127;SDS011;60000;51.030;7.024;2022-11-21T09:41:33;11.38;;;4.38;;
72127;SDS011;60000;51.030;7.024;2022-11-21T09:47:26;10.43;;;4.55;;
72127;SDS011;60000;51.030;7.024;2022-11-21T09:52:36;11.60;;;4.47;;
72127;SDS011;60000;51.030;7.024;2022-11-21T09:55:03;15.55;;;3.90;;
72127;SDS011;60000;51.030;7.024;2022-11-21T09:57:31;10.10;;;4.40;;
72127;SDS011;60000;51.030;7.024;2022-11-21T09:59:59;7.95;;;4.13;;
72127;SDS011;60000;51.030;7.024;2022-11-21T10:02:27;10.88;;;4.25;;
72127;SDS011;60000;51.030;7.024;2022-11-21T10:04:52;6.80;;;3.10;;
72127;SDS011;60000;51.030;7.024;2022-11-21T10:10:07;11.13;;;4.03;;
72127;SDS011;60000;51.030;7.024;2022-11-21T10:27:36;8.63;;;4.20;;
72127;SDS011;60000;51.030;7.024;2022-11-21T10:30:12;8.02;;;3.65;;
72127;SDS011;60000;51.030;7.024;2022-11-21T10:32:41;16.17;;;5.55;;
72127;SDS011;60000;51.030;7.024;2022-11-21T10:35:19;15.32;;;5.22;;
72127;SDS011;60000;51.030;7.024;2022-11-21T10:37:59;11.65;;;5.30;;
72127;SDS011;60000;51.030;7.024;2022-11-21T10:46:18;8.80;;;4.15;;
72127;SDS011;60000;51.030;7.024;2022-11-21T10:48:48;9.63;;;4.03;;
72127;SDS011;60000;51.030;7.024;2022-11-21T10:54:16;12.23;;;3.85;;
72127;SDS011;60000;51.030;7.024;2022-11-21T10:57:13;8.63;;;3.17;;
72127;SDS011;60000;51.030;7.024;2022-11-21T10:59:40;9.63;;;3.23;;
72127;SDS011;60000;51.030;7.024;2022-11-21T11:02:23;8.70;;;2.80;;
72127;SDS011;60000;51.030;7.024;2022-11-21T11:04:56;8.10;;;2.92;;
72127;SDS011;60000;51.030;7.024;2022-11-21T11:07:40;6.53;;;2.55;;
72127;SDS011;60000;51.030;7.024;2022-11-21T11:10:22;9.47;;;2.80;;
72127;SDS011;60000;51.030;7.024;2022-11-21T11:12:48;7.68;;;2.60;;
72127;SDS011;60000;51.030;7.024;2022-11-21T11:15:33;6.50;;;2.83;;
72127;SDS011;60000;51.030;7.024;2022-11-21T11:18:03;9.50;;;2.97;;
72127;SDS011;60000;51.030;7.024;2022-11-21T11:20:33;11.35;;;2.92;;
72127;SDS011;60000;51.030;7.024;2022-11-21T11:23:14;11.40;;;3.00;;
72127;SDS011;60000;51.030;7.024;2022-11-21T11:25:43;8.75;;;2.60;;
72127;SDS011;60000;51.030;7.024;2022-11-21T11:28:11;6.60;;;2.88;;
72127;SDS011;60000;51.030;7.024;2022-11-21T11:30:37;10.57;;;2.80;;
72127;SDS011;60000;51.030;7.024;2022-11-21T11:33:02;7.63;;;2.93;;
72127;SDS011;60000;51.030;7.024;2022-11-21T11:35:28;10.67;;;3.10;;
72127;SDS011;60000;51.030;7.024;2022-11-21T11:37:58;8.82;;;2.47;;
72127;SDS011;60000;51.030;7.024;2022-11-21T11:49:03;6.80;;;1.55;;
72127;SDS011;60000;51.030;7.024;2022-11-21T11:51:39;8.07;;;1.70;;
72127;SDS011;60000;51.030;7.024;2022-11-21T11:54:18;5.57;;;1.60;;
72127;SDS011;60000;51.030;7.024;2022-11-21T11:56:53;6.47;;;1.90;;
72127;SDS011;60000;51.030;7.024;2022-11-21T12:02:00;9.20;;;1.80;;
72127;SDS011;60000;51.030;7.024;2022-11-21T12:04:36;5.43;;;1.98;;
72127;SDS011;60000;51.030;7.024;2022-11-21T12:07:18;8.68;;;2.20;;
72127;SDS011;60000;51.030;7.024;2022-11-21T12:10:12;9.88;;;1.48;;
72127;SDS011;60000;51.030;7.024;2022-11-21T12:12:42;5.57;;;1.40;;
72127;SDS011;60000;51.030;7.024;2022-11-21T12:15:31;4.17;;;1.17;;
72127;SDS011;60000;51.030;7.024;2022-11-21T12:24:06;3.03;;;1.00;;
72127;SDS011;60000;51.030;7.024;2022-11-21T12:45:54;7.20;;;1.70;;
72127;SDS011;60000;51.030;7.024;2022-11-21T12:48:31;2.73;;;1.00;;
72127;SDS011;60000;51.030;7.024;2022-11-21T12:51:40;4.50;;;1.30;;
72127;SDS011;60000;51.030;7.024;2022-11-21T12:54:35;6.50;;;1.45;;
72127;SDS011;60000;51.030;7.024;2022-11-21T12:57:20;4.95;;;1.45;;
72127;SDS011;60000;51.030;7.024;2022-11-21T13:00:17;5.68;;;1.42;;
72127;SDS011;60000;51.030;7.024;2022-11-21T13:05:48;5.57;;;1.10;;
72127;SDS011;60000;51.030;7.024;2022-11-21T13:08:23;3.08;;;1.33;;
72127;SDS011;60000;51.030;7.024;2022-11-21T13:11:40;3.28;;;0.98;;
72127;SDS011;60000;51.030;7.024;2022-11-21T13:16:46;2.30;;;0.80;;
72127;SDS011;60000;51.030;7.024;2022-11-21T13:22:06;2.95;;;1.10;;
72127;SDS011;60000;51.030;7.024;2022-11-21T13:25:09;5.07;;;0.82;;
72127;SDS011;60000;51.030;7.024;2022-11-21T13:27:39;2.70;;;0.90;;
72127;SDS011;60000;51.030;7.024;2022-11-21T13:32:40;4.17;;;0.70;;
72127;SDS011;60000;51.030;7.024;2022-11-21T13:59:33;6.18;;;0.90;;
72127;SDS011;60000;51.030;7.024;2022-11-21T14:05:01;5.47;;;1.20;;
72127;SDS011;60000;51.030;7.024;2022-11-21T14:07:38;4.53;;;1.23;;
72127;SDS011;60000;51.030;7.024;2022-11-21T14:10:39;5.13;;;1.10;;
72127;SDS011;60000;51.030;7.024;2022-11-21T14:12:58;4.40;;;0.90;;
72127;SDS011;60000;51.030;7.024;2022-11-21T14:15:39;4.50;;;0.98;;
72127;SDS011;60000;51.030;7.024;2022-11-21T14:18:20;5.20;;;1.30;;
72127;SDS011;60000;51.030;7.024;2022-11-21T14:23:19;2.58;;;0.95;;
72127;SDS011;60000;51.030;7.024;2022-11-21T14:25:53;3.78;;;0.88;;
72127;SDS011;60000;51.030;7.024;2022-11-21T14:28:28;2.58;;;0.80;;
72127;SDS011;60000;51.030;7.024;2022-11-21T14:33:29;4.05;;;1.10;;
72127;SDS011;60000;51.030;7.024;2022-11-21T14:35:56;3.20;;;1.00;;
72127;SDS011;60000;51.030;7.024;2022-11-21T14:38:24;3.72;;;0.85;;
72127;SDS011;60000;51.030;7.024;2022-11-21T14:41:10;5.38;;;1.30;;
72127;SDS011;60000;51.030;7.024;2022-11-21T14:46:21;2.17;;;0.80;;
72127;SDS011;60000;51.030;7.024;2022-11-21T14:48:47;2.80;;;0.70;;
72127;SDS011;60000;51.030;7.024;2022-11-21T14:51:16;3.58;;;0.80;;
72127;SDS011;60000;51.030;7.024;2022-11-21T14:53:43;2.97;;;1.00;;
72127;SDS011;60000;51.030;7.024;2022-11-21T14:56:23;3.58;;;0.80;;
72127;SDS011;60000;51.030;7.024;2022-11-21T14:58:51;3.65;;;0.90;;
72127;SDS011;60000;51.030;7.024;2022-11-21T15:01:18;5.15;;;1.05;;
72127;SDS011;60000;51.030;7.024;2022-11-21T15:04:01;3.50;;;1.08;;
72127;SDS011;60000;51.030;7.024;2022-11-21T15:06:29;4.40;;;0.90;;
72127;SDS011;60000;51.030;7.024;2022-11-21T15:08:57;4.90;;;1.13;;
72127;SDS011;60000;51.030;7.024;2022-11-21T15:11:31;4.50;;;1.08;;
72127;SDS011;60000;51.030;7.024;2022-11-21T15:14:00;3.35;;;1.02;;
72127;SDS011;60000;51.030;7.024;2022-11-21T15:16:29;5.85;;;1.30;;
72127;SDS011;60000;51.030;7.024;2022-11-21T15:18:55;5.10;;;0.90;;
72127;SDS011;60000;51.030;7.024;2022-11-21T15:21:20;4.90;;;1.30;;
72127;SDS011;60000;51.030;7.024;2022-11-21T15:23:46;3.35;;;1.00;;
72127;SDS011;60000;51.030;7.024;2022-11-21T15:26:25;4.60;;;1.20;;
72127;SDS011;60000;51.030;7.024;2022-11-21T15:28:54;3.70;;;1.20;;
72127;SDS011;60000;51.030;7.024;2022-11-21T15:31:20;4.60;;;1.23;;
72127;SDS011;60000;51.030;7.024;2022-11-21T15:36:30;3.47;;;1.13;;
72127;SDS011;60000;51.030;7.024;2022-11-21T15:41:31;5.40;;;1.40;;
72127;SDS011;60000;51.030;7.024;2022-11-21T15:46:30;4.70;;;1.17;;
72127;SDS011;60000;51.030;7.024;2022-11-21T15:48:57;3.75;;;1.00;;
72127;SDS011;60000;51.030;7.024;2022-11-21T15:51:24;3.42;;;1.00;;
72127;SDS011;60000;51.030;7.024;2022-11-21T15:54:20;3.95;;;1.10;;
72127;SDS011;60000;51.030;7.024;2022-11-21T15:56:46;3.37;;;1.10;;
72127;SDS011;60000;51.030;7.024;2022-11-21T15:59:12;4.88;;;1.25;;
72127;SDS011;60000;51.030;7.024;2022-11-21T16:01:38;5.03;;;1.45;;
72127;SDS011;60000;51.030;7.024;2022-11-21T16:04:04;3.47;;;1.03;;
72127;SDS011;60000;51.030;7.024;2022-11-21T16:06:31;3.10;;;1.00;;
72127;SDS011;60000;51.030;7.024;2022-11-21T16:08:58;6.72;;;1.35;;
72127;SDS011;60000;51.030;7.024;2022-11-21T16:11:36;5.50;;;1.50;;
72127;SDS011;60000;51.030;7.024;2022-11-21T16:14:04;3.83;;;1.10;;
72127;SDS011;60000;51.030;7.024;2022-11-21T16:16:31;8.57;;;1.50;;
72127;SDS011;60000;51.030;7.024;2022-11-21T16:18:58;5.30;;;1.42;;
72127;SDS011;60000;51.030;7.024;2022-11-21T16:21:24;4.83;;;1.50;;
72127;SDS011;60000;51.030;7.024;2022-11-21T16:23:50;4.97;;;1.50;;
72127;SDS011;60000;51.030;7.024;2022-11-21T16:26:16;3.78;;;1.35;;
72127;SDS011;60000;51.030;7.024;2022-11-21T16:28:41;6.07;;;1.23;;
72127;SDS011;60000;51.030;7.024;2022-11-21T16:31:15;6.88;;;1.42;;
72127;SDS011;60000;51.030;7.024;2022-11-21T16:33:42;3.67;;;1.27;;
72127;SDS011;60000;51.030;7.024;2022-11-21T16:36:08;8.13;;;1.60;;
72127;SDS011;60000;51.030;7.024;2022-11-21T16:38:33;5.40;;;1.00;;
72127;SDS011;60000;51.030;7.024;2022-11-21T16:40:59;5.32;;;1.58;;
72127;SDS011;60000;51.030;7.024;2022-11-21T16:43:28;6.47;;;1.47;;
72127;SDS011;60000;51.030;7.024;2022-11-21T16:45:54;4.55;;;1.05;;
72127;SDS011;60000;51.030;7.024;2022-11-21T16:48:20;4.28;;;1.50;;
72127;SDS011;60000;51.030;7.024;2022-11-21T16:50:47;4.95;;;1.45;;
72127;SDS011;60000;51.030;7.024;2022-11-21T16:53:13;6.43;;;1.37;;
72127;SDS011;60000;51.030;7.024;2022-11-21T16:55:39;5.28;;;1.63;;
72127;SDS011;60000;51.030;7.024;2022-11-21T16:58:04;8.10;;;1.50;;
72127;SDS011;60000;51.030;7.024;2022-11-21T17:00:30;6.70;;;1.77;;
72127;SDS011;60000;51.030;7.024;2022-11-21T17:02:55;10.23;;;1.70;;